createdAt,value
2018-06-08T00:00:46.352Z,7.07
2018-06-08T00:03:15.605Z,6.90
2018-06-08T00:05:44.839Z,7.63
2018-06-08T00:08:13.803Z,7.00
2018-06-08T00:10:42.930Z,7.17
2018-06-08T00:13:11.895Z,7.93
2018-06-08T00:15:40.702Z,7.37
2018-06-08T00:18:09.849Z,7.07
2018-06-08T00:20:38.815Z,11.00
2018-06-08T00:23:07.936Z,7.50
2018-06-08T00:25:37.197Z,6.80
2018-06-08T00:28:06.474Z,7.00
2018-06-08T00:30:35.718Z,7.60
2018-06-08T00:33:05.228Z,7.90
2018-06-08T00:35:34.494Z,7.40
2018-06-08T00:38:03.775Z,7.60
2018-06-08T00:40:33.034Z,8.03
2018-06-08T00:43:02.299Z,7.37
2018-06-08T00:45:31.570Z,7.70
2018-06-08T00:48:00.946Z,7.10
2018-06-08T00:50:30.195Z,7.43
2018-06-08T00:52:59.478Z,6.93
2018-06-08T00:55:28.803Z,7.60
2018-06-08T00:57:58.075Z,7.87
2018-06-08T01:00:27.358Z,8.40
2018-06-08T01:02:56.650Z,7.17
2018-06-08T01:05:25.920Z,7.63
2018-06-08T01:07:55.209Z,7.90
2018-06-08T01:10:24.147Z,7.23
2018-06-08T01:12:53.302Z,7.37
2018-06-08T01:15:22.569Z,8.17
2018-06-08T01:17:51.875Z,7.60
2018-06-08T01:20:21.124Z,7.97
2018-06-08T01:22:50.378Z,7.57
2018-06-08T01:25:19.323Z,7.10
2018-06-08T01:27:48.518Z,7.13
2018-06-08T01:30:17.838Z,7.47
2018-06-08T01:32:47.702Z,7.37
2018-06-08T01:35:16.981Z,8.03
2018-06-08T01:37:46.283Z,6.87
2018-06-08T01:40:15.540Z,6.67
2018-06-08T01:42:44.790Z,7.67
2018-06-08T01:45:13.706Z,7.83
2018-06-08T01:47:42.882Z,8.00
2018-06-08T01:50:12.161Z,12.63
2018-06-08T01:52:41.426Z,7.20
2018-06-08T01:55:10.833Z,7.33
2018-06-08T01:57:40.107Z,8.00
2018-06-08T02:00:09.442Z,7.10
2018-06-08T02:02:38.686Z,7.87
2018-06-08T02:05:08.087Z,8.93
2018-06-08T02:07:37.329Z,7.53
2018-06-08T02:10:06.756Z,8.13
2018-06-08T02:12:36.014Z,7.60
2018-06-08T02:15:05.305Z,9.83
2018-06-08T02:17:34.752Z,7.77
2018-06-08T02:20:03.995Z,8.93
2018-06-08T02:22:33.459Z,7.60
2018-06-08T02:25:02.737Z,7.93
2018-06-08T02:27:32.026Z,8.73
2018-06-08T02:30:01.303Z,8.07
2018-06-08T02:32:30.538Z,8.83
2018-06-08T02:34:59.789Z,8.00
2018-06-08T02:37:29.036Z,8.23
2018-06-08T02:39:58.276Z,8.30
2018-06-08T02:42:27.549Z,8.60
2018-06-08T02:44:56.891Z,8.30
2018-06-08T02:47:26.151Z,8.10
2018-06-08T02:49:55.432Z,8.70
2018-06-08T02:52:24.736Z,7.73
2018-06-08T02:54:53.995Z,8.37
2018-06-08T02:57:23.266Z,8.20
2018-06-08T02:59:52.620Z,9.50
2018-06-08T03:02:21.947Z,8.83
2018-06-08T03:04:51.193Z,7.83
2018-06-08T03:07:20.551Z,8.30
2018-06-08T03:09:49.820Z,7.43
2018-06-08T03:12:19.133Z,8.53
2018-06-08T03:14:48.418Z,7.87
2018-06-08T03:17:17.698Z,8.33
2018-06-08T03:19:47.108Z,8.20
2018-06-08T03:22:16.398Z,10.00
2018-06-08T03:24:45.701Z,8.33
2018-06-08T03:27:14.945Z,9.97
2018-06-08T03:29:44.205Z,9.03
2018-06-08T03:32:13.574Z,8.13
2018-06-08T03:34:42.860Z,7.63
2018-06-08T03:37:12.114Z,7.97
2018-06-08T03:39:41.402Z,8.37
2018-06-08T03:42:10.663Z,7.73
2018-06-08T03:44:39.960Z,7.60
2018-06-08T03:47:09.225Z,8.70
2018-06-08T03:49:38.462Z,9.03
2018-06-08T03:52:07.762Z,7.73
2018-06-08T03:54:37.033Z,8.37
2018-06-08T03:57:06.305Z,8.33
2018-06-08T03:59:35.581Z,9.07
2018-06-08T04:02:04.817Z,8.70
2018-06-08T04:04:34.113Z,8.33
2018-06-08T04:07:03.402Z,8.33
2018-06-08T04:09:32.667Z,7.40
2018-06-08T04:12:02.030Z,8.57
2018-06-08T04:14:31.280Z,7.53
2018-06-08T04:17:00.545Z,8.10
2018-06-08T04:19:29.781Z,8.23
2018-06-08T04:21:59.260Z,7.47
2018-06-08T04:24:28.555Z,7.47
2018-06-08T04:26:57.859Z,7.23
2018-06-08T04:29:27.178Z,8.07
2018-06-08T04:31:56.446Z,10.17
2018-06-08T04:34:25.703Z,8.13
2018-06-08T04:36:54.982Z,8.17
2018-06-08T04:39:24.272Z,7.93
2018-06-08T04:41:53.177Z,7.40
2018-06-08T04:44:22.373Z,7.20
2018-06-08T04:46:51.619Z,7.97
2018-06-08T04:49:20.890Z,7.07
2018-06-08T04:51:50.193Z,6.67
2018-06-08T04:54:19.472Z,8.80
2018-06-08T04:56:48.785Z,8.83
2018-06-08T04:59:18.041Z,9.50
2018-06-08T05:01:47.327Z,8.43
2018-06-08T05:04:16.602Z,8.20
2018-06-08T05:06:45.863Z,7.83
2018-06-08T05:09:15.154Z,7.37
2018-06-08T05:11:44.410Z,7.63
2018-06-08T05:14:13.682Z,7.70
2018-06-08T05:16:44.078Z,9.60
2018-06-08T05:19:16.032Z,8.30
2018-06-08T05:21:50.382Z,8.63
2018-06-08T05:24:21.561Z,7.70
2018-06-08T05:26:51.874Z,9.87
2018-06-08T05:29:21.177Z,10.00
2018-06-08T05:31:50.464Z,9.23
2018-06-08T05:34:19.691Z,9.00
2018-06-08T05:36:48.978Z,8.73
2018-06-08T05:39:18.384Z,7.90
2018-06-08T05:41:47.683Z,9.60
2018-06-08T05:44:16.969Z,10.73
2018-06-08T05:46:46.205Z,8.90
2018-06-08T05:49:15.139Z,8.37
2018-06-08T05:51:44.318Z,11.97
2018-06-08T05:54:13.605Z,9.70
2018-06-08T05:56:42.854Z,8.27
2018-06-08T05:59:12.166Z,12.80
2018-06-08T06:01:41.467Z,7.93
2018-06-08T06:04:10.709Z,9.83
2018-06-08T06:06:39.994Z,9.10
2018-06-08T06:09:09.496Z,11.30
2018-06-08T06:11:38.777Z,11.73
2018-06-08T06:14:08.053Z,11.70
2018-06-08T06:16:37.305Z,11.80
2018-06-08T06:19:06.643Z,12.40
2018-06-08T06:21:35.927Z,10.33
2018-06-08T06:24:05.234Z,16.40
2018-06-08T06:26:34.543Z,13.97
2018-06-08T06:29:03.808Z,11.13
2018-06-08T06:31:32.740Z,11.63
2018-06-08T06:34:01.910Z,14.37
2018-06-08T06:36:31.173Z,14.63
2018-06-08T06:39:00.431Z,14.33
2018-06-08T06:41:29.746Z,11.43
2018-06-08T06:43:59.049Z,14.90
2018-06-08T06:46:28.319Z,13.47
2018-06-08T06:48:57.594Z,11.60
2018-06-08T06:51:26.846Z,12.17
2018-06-08T06:53:56.160Z,9.57
2018-06-08T06:56:25.414Z,15.10
2018-06-08T06:58:54.687Z,11.27
2018-06-08T07:01:23.950Z,12.77
2018-06-08T07:03:53.208Z,14.37
2018-06-08T07:06:22.490Z,12.03
2018-06-08T07:08:51.798Z,10.13
2018-06-08T07:11:21.073Z,11.80
2018-06-08T07:13:50.360Z,10.33
2018-06-08T07:16:19.678Z,8.97
2018-06-08T07:18:48.956Z,9.57
2018-06-08T07:21:18.167Z,10.00
2018-06-08T07:23:47.444Z,15.53
2018-06-08T07:26:16.959Z,10.37
2018-06-08T07:28:46.237Z,11.73
2018-06-08T07:31:15.524Z,9.93
2018-06-08T07:33:44.805Z,11.87
2018-06-08T07:36:14.069Z,10.37
2018-06-08T07:38:43.338Z,12.33
2018-06-08T07:41:12.677Z,9.50
2018-06-08T07:43:41.952Z,8.83
2018-06-08T07:46:11.276Z,10.17
2018-06-08T07:48:40.557Z,12.10
2018-06-08T07:51:10.384Z,10.00
2018-06-08T07:53:42.020Z,10.67
2018-06-08T07:56:12.328Z,11.03
2018-06-08T07:58:41.643Z,12.30
2018-06-08T08:01:20.376Z,8.83
2018-06-08T08:03:53.361Z,9.40
2018-06-08T08:06:23.709Z,9.83
2018-06-08T08:08:53.063Z,9.67
2018-06-08T08:11:22.238Z,11.77
2018-06-08T08:13:51.498Z,9.10
2018-06-08T08:16:20.832Z,10.40
2018-06-08T08:18:50.070Z,8.03
2018-06-08T08:21:19.353Z,8.70
2018-06-08T08:23:48.769Z,9.60
2018-06-08T08:26:18.074Z,10.10
2018-06-08T08:28:47.391Z,11.27
2018-06-08T08:31:16.667Z,10.30
2018-06-08T08:33:45.979Z,9.17
2018-06-08T08:36:15.242Z,8.53
2018-06-08T08:38:44.508Z,8.00
2018-06-08T08:41:13.789Z,9.73
2018-06-08T08:43:43.041Z,9.67
2018-06-08T08:46:12.297Z,9.67
2018-06-08T08:48:41.791Z,9.00
2018-06-08T08:51:11.043Z,8.87
2018-06-08T08:53:40.292Z,10.27
2018-06-08T08:56:09.701Z,9.67
2018-06-08T08:58:38.966Z,8.23
2018-06-08T09:01:08.189Z,9.33
2018-06-08T09:03:37.617Z,7.60
2018-06-08T09:06:06.872Z,9.70
2018-06-08T09:08:36.154Z,8.40
2018-06-08T09:11:05.440Z,9.87
2018-06-08T09:13:34.690Z,9.40
2018-06-08T09:16:04.012Z,7.77
2018-06-08T09:18:33.267Z,8.07
2018-06-08T09:21:02.555Z,7.93
2018-06-08T09:23:31.962Z,8.10
2018-06-08T09:26:01.239Z,7.77
2018-06-08T09:28:30.506Z,9.10
2018-06-08T09:30:59.949Z,7.70
2018-06-08T09:33:29.213Z,7.30
2018-06-08T09:35:58.487Z,8.33
2018-06-08T09:38:27.749Z,7.43
2018-06-08T09:40:57.011Z,8.67
2018-06-08T09:43:26.258Z,7.93
2018-06-08T09:45:55.498Z,9.97
2018-06-08T09:48:24.757Z,8.53
2018-06-08T09:50:54.015Z,7.30
2018-06-08T09:53:23.276Z,10.80
2018-06-08T09:55:52.602Z,11.30
2018-06-08T09:58:21.834Z,20.07
2018-06-08T10:00:51.348Z,8.40
2018-06-08T10:03:20.620Z,9.33
2018-06-08T10:05:49.939Z,7.77
2018-06-08T10:08:19.383Z,8.53
2018-06-08T10:10:48.741Z,8.30
2018-06-08T10:13:18.005Z,8.47
2018-06-08T10:15:47.250Z,9.30
2018-06-08T10:18:16.512Z,8.60
2018-06-08T10:20:45.727Z,8.40
2018-06-08T10:23:14.994Z,8.30
2018-06-08T10:25:44.254Z,8.73
2018-06-08T10:28:13.510Z,8.23
2018-06-08T10:30:42.766Z,8.33
2018-06-08T10:33:12.082Z,7.93
2018-06-08T10:35:41.332Z,8.57
2018-06-08T10:38:10.677Z,9.70
2018-06-08T10:40:39.951Z,8.63
2018-06-08T10:43:09.202Z,8.50
2018-06-08T10:45:38.537Z,8.20
2018-06-08T10:48:07.785Z,8.60
2018-06-08T10:50:37.207Z,9.13
2018-06-08T10:53:06.479Z,8.63
2018-06-08T10:55:35.712Z,8.37
2018-06-08T10:58:04.950Z,8.17
2018-06-08T11:00:34.190Z,8.33
2018-06-08T11:03:03.451Z,8.70
2018-06-08T11:05:32.701Z,8.23
2018-06-08T11:08:01.954Z,11.00
2018-06-08T11:10:31.201Z,8.03
2018-06-08T11:13:00.136Z,11.40
2018-06-08T11:15:29.260Z,9.43
2018-06-08T11:17:58.533Z,8.37
2018-06-08T11:20:27.810Z,9.17
2018-06-08T11:22:57.190Z,9.27
2018-06-08T11:25:26.414Z,9.53
2018-06-08T11:27:55.674Z,10.73
2018-06-08T11:30:24.909Z,9.67
2018-06-08T11:32:54.189Z,8.73
2018-06-08T11:35:23.438Z,8.23
2018-06-08T11:37:52.711Z,9.13
2018-06-08T11:40:21.965Z,9.57
2018-06-08T11:42:51.205Z,8.47
2018-06-08T11:45:20.119Z,9.00
2018-06-08T11:47:49.311Z,8.97
2018-06-08T11:50:18.590Z,7.90
2018-06-08T11:52:50.736Z,9.10
2018-06-08T11:55:23.029Z,9.00
2018-06-08T11:57:52.291Z,9.57
2018-06-08T12:00:21.585Z,9.20
2018-06-08T12:02:51.051Z,10.60
2018-06-08T12:05:20.309Z,8.07
2018-06-08T12:07:49.599Z,8.70
2018-06-08T12:10:18.823Z,8.07
2018-06-08T12:12:48.103Z,9.37
2018-06-08T12:15:17.360Z,8.10
2018-06-08T12:17:46.626Z,7.90
2018-06-08T12:20:15.897Z,8.30
2018-06-08T12:22:44.813Z,8.27
2018-06-08T12:25:13.966Z,8.63
2018-06-08T12:27:44.018Z,9.23
2018-06-08T12:30:13.246Z,7.17
2018-06-08T12:32:42.514Z,7.73
2018-06-08T12:35:11.793Z,8.50
2018-06-08T12:37:41.122Z,7.50
2018-06-08T12:40:10.375Z,8.93
2018-06-08T12:42:39.611Z,8.80
2018-06-08T12:45:08.865Z,7.73
2018-06-08T12:47:38.153Z,7.03
2018-06-08T12:50:07.435Z,7.37
2018-06-08T12:52:36.693Z,7.33
2018-06-08T12:55:05.993Z,8.03
2018-06-08T12:57:35.249Z,7.93
2018-06-08T13:00:04.749Z,8.73
2018-06-08T13:02:34.258Z,8.07
2018-06-08T13:05:03.442Z,7.70
2018-06-08T13:07:32.691Z,10.37
2018-06-08T13:10:02.060Z,9.70
2018-06-08T13:12:31.327Z,11.20
2018-06-08T13:15:00.572Z,9.03
2018-06-08T13:17:29.858Z,8.67
2018-06-08T13:19:59.154Z,8.17
2018-06-08T13:22:28.470Z,9.00
2018-06-08T13:24:57.778Z,9.00
2018-06-08T13:27:26.646Z,9.37
2018-06-08T13:29:55.787Z,10.37
2018-06-08T13:32:25.068Z,8.60
2018-06-08T13:34:54.341Z,9.73
2018-06-08T13:37:23.646Z,12.43
2018-06-08T13:39:52.940Z,8.27
2018-06-08T13:42:22.350Z,9.47
2018-06-08T13:44:51.615Z,8.37
2018-06-08T13:47:20.862Z,8.43
2018-06-08T13:49:50.117Z,7.70
2018-06-08T13:52:19.406Z,7.87
2018-06-08T13:54:48.732Z,7.87
2018-06-08T13:57:17.954Z,10.83
2018-06-08T13:59:47.241Z,8.10
2018-06-08T14:02:17.349Z,8.27
2018-06-08T14:04:46.601Z,7.50
2018-06-08T14:07:15.858Z,10.17
2018-06-08T14:09:45.169Z,7.70
2018-06-08T14:12:14.421Z,8.57
2018-06-08T14:14:43.679Z,7.97
2018-06-08T14:17:12.928Z,7.97
2018-06-08T14:19:42.185Z,7.50
2018-06-08T14:22:11.427Z,7.83
2018-06-08T14:24:40.686Z,9.50
2018-06-08T14:27:10.100Z,9.03
2018-06-08T14:29:39.366Z,7.57
2018-06-08T14:32:08.631Z,7.30
2018-06-08T14:34:37.878Z,7.73
2018-06-08T14:37:07.159Z,8.23
2018-06-08T14:39:36.408Z,8.33
2018-06-08T14:42:05.672Z,7.87
2018-06-08T14:44:35.177Z,7.30
2018-06-08T14:47:04.426Z,8.43
2018-06-08T14:49:33.674Z,9.47
2018-06-08T14:52:03.051Z,7.53
2018-06-08T14:54:32.326Z,9.10
2018-06-08T14:57:01.603Z,7.90
2018-06-08T14:59:30.902Z,9.40
2018-06-08T15:02:00.283Z,7.57
2018-06-08T15:04:29.547Z,8.33
2018-06-08T15:06:58.821Z,9.07
2018-06-08T15:09:28.097Z,8.03
2018-06-08T15:11:57.365Z,7.63
2018-06-08T15:14:26.618Z,8.20
2018-06-08T15:16:55.895Z,8.33
2018-06-08T15:19:25.172Z,9.40
2018-06-08T15:21:54.607Z,7.30
2018-06-08T15:24:24.079Z,7.60
2018-06-08T15:26:53.320Z,10.60
2018-06-08T15:29:22.642Z,9.00
2018-06-08T15:31:51.915Z,7.93
2018-06-08T15:34:21.216Z,8.10
2018-06-08T15:36:50.502Z,7.07
2018-06-08T15:39:19.805Z,6.83
2018-06-08T15:41:49.086Z,6.87
2018-06-08T15:44:18.378Z,6.90
2018-06-08T15:46:47.693Z,7.57
2018-06-08T15:49:16.954Z,7.23
2018-06-08T15:51:46.215Z,7.37
2018-06-08T15:54:15.495Z,9.97
2018-06-08T15:56:44.790Z,9.03
2018-06-08T15:59:14.037Z,9.23
2018-06-08T16:01:43.333Z,9.50
2018-06-08T16:04:12.594Z,7.87
2018-06-08T16:06:41.869Z,14.13
2018-06-08T16:09:11.158Z,7.17
2018-06-08T16:11:40.417Z,7.57
2018-06-08T16:14:09.682Z,7.13
2018-06-08T16:16:38.966Z,7.50
2018-06-08T16:19:12.322Z,7.77
2018-06-08T16:21:46.551Z,7.07
2018-06-08T16:24:19.708Z,6.73
2018-06-08T16:26:51.546Z,7.53
2018-06-08T16:29:20.871Z,12.63
2018-06-08T16:31:50.815Z,7.43
2018-06-08T16:34:22.508Z,7.30
2018-06-08T16:36:56.661Z,7.40
2018-06-08T16:39:30.325Z,7.63
2018-06-08T16:42:01.909Z,10.33
2018-06-08T16:44:32.318Z,7.73
2018-06-08T16:47:04.431Z,8.10
2018-06-08T16:49:33.769Z,7.80
2018-06-08T16:52:04.129Z,7.90
2018-06-08T16:54:33.391Z,8.33
2018-06-08T16:57:02.843Z,12.60
2018-06-08T16:59:32.092Z,6.87
2018-06-08T17:02:01.355Z,8.87
2018-06-08T17:04:30.643Z,42.97
2018-06-08T17:06:59.952Z,30.13
2018-06-08T17:09:29.338Z,45.90
2018-06-08T17:11:58.667Z,27.90
2018-06-08T17:14:28.004Z,29.43
2018-06-08T17:16:57.757Z,17.07
2018-06-08T17:19:27.029Z,21.17
2018-06-08T17:21:56.288Z,13.30
2018-06-08T17:24:25.719Z,17.63
2018-06-08T17:26:55.025Z,13.87
2018-06-08T17:29:24.351Z,12.70
2018-06-08T17:31:53.595Z,8.97
2018-06-08T17:34:22.885Z,13.33
2018-06-08T17:36:52.146Z,12.37
2018-06-08T17:39:21.544Z,9.70
2018-06-08T17:41:50.818Z,11.20
2018-06-08T17:44:20.153Z,11.53
2018-06-08T17:46:52.147Z,12.27
2018-06-08T17:49:21.373Z,10.23
2018-06-08T17:51:51.103Z,9.60
2018-06-08T17:54:20.406Z,13.40
2018-06-08T17:56:49.658Z,10.93
2018-06-08T17:59:18.939Z,12.70
2018-06-08T18:01:48.334Z,11.00
2018-06-08T18:04:17.639Z,10.23
2018-06-08T18:06:46.948Z,11.40
2018-06-08T18:09:16.207Z,10.13
2018-06-08T18:11:45.544Z,9.90
2018-06-08T18:14:14.836Z,9.20
2018-06-08T18:16:44.089Z,10.13
2018-06-08T18:19:13.359Z,8.77
2018-06-08T18:21:42.637Z,11.20
2018-06-08T18:24:11.909Z,9.47
2018-06-08T18:26:41.186Z,8.50
2018-06-08T18:29:10.454Z,8.60
2018-06-08T18:31:39.717Z,7.80
2018-06-08T18:34:09.126Z,9.50
2018-06-08T18:36:38.381Z,8.67
2018-06-08T18:39:08.606Z,10.87
2018-06-08T18:41:37.907Z,9.13
2018-06-08T18:44:07.291Z,7.97
2018-06-08T18:46:36.580Z,8.30
2018-06-08T18:49:05.497Z,8.73
2018-06-08T18:51:34.660Z,8.40
2018-06-08T18:54:04.041Z,8.03
2018-06-08T18:56:33.570Z,8.63
2018-06-08T18:59:02.948Z,7.90
2018-06-08T19:01:32.207Z,10.93
2018-06-08T19:04:01.735Z,7.93
2018-06-08T19:06:31.068Z,8.27
2018-06-08T19:09:00.960Z,8.17
2018-06-08T19:11:32.009Z,9.90
2018-06-08T19:14:00.926Z,7.83
2018-06-08T19:16:30.053Z,7.83
2018-06-08T19:18:59.350Z,10.07
2018-06-08T19:21:28.651Z,8.07
2018-06-08T19:23:57.955Z,8.67
2018-06-08T19:26:27.270Z,7.97
2018-06-08T19:28:57.001Z,7.60
2018-06-08T19:31:26.259Z,8.07
2018-06-08T19:33:56.180Z,8.27
2018-06-08T19:36:25.593Z,8.80
2018-06-08T19:38:54.882Z,7.67
2018-06-08T19:41:24.124Z,8.33
2018-06-08T19:43:53.493Z,8.17
2018-06-08T19:46:26.309Z,7.30
2018-06-08T19:48:55.654Z,8.03
2018-06-08T19:51:24.910Z,8.10
2018-06-08T19:53:54.189Z,8.00
2018-06-08T19:56:23.447Z,8.10
2018-06-08T19:58:52.736Z,11.17
2018-06-08T20:01:22.012Z,8.90
2018-06-08T20:03:50.921Z,8.27
2018-06-08T20:06:20.090Z,7.80
2018-06-08T20:08:49.547Z,8.10
2018-06-08T20:11:18.843Z,7.63
2018-06-08T20:13:48.152Z,8.20
2018-06-08T20:16:17.393Z,8.67
2018-06-08T20:18:46.916Z,9.40
2018-06-08T20:21:16.183Z,7.70
2018-06-08T20:23:45.513Z,10.57
2018-06-08T20:26:15.542Z,7.80
2018-06-08T20:28:44.840Z,7.47
2018-06-08T20:31:14.160Z,7.33
2018-06-08T20:33:43.455Z,7.30
2018-06-08T20:36:12.930Z,7.57
2018-06-08T20:38:43.524Z,8.30
2018-06-08T20:41:12.799Z,8.23
2018-06-08T20:43:42.119Z,9.57
2018-06-08T20:46:11.409Z,8.43
2018-06-08T20:48:40.768Z,7.90
2018-06-08T20:51:10.039Z,8.13
2018-06-08T20:53:39.322Z,8.67
2018-06-08T20:56:08.619Z,8.10
2018-06-08T20:58:38.248Z,9.10
2018-06-08T21:01:07.499Z,8.93
2018-06-08T21:03:36.774Z,8.60
2018-06-08T21:06:06.070Z,10.43
2018-06-08T21:08:36.973Z,7.83
2018-06-08T21:11:07.468Z,9.27
2018-06-08T21:13:36.780Z,13.07
2018-06-08T21:16:06.165Z,8.80
2018-06-08T21:18:35.475Z,9.97
2018-06-08T21:21:04.709Z,9.50
2018-06-08T21:23:34.063Z,9.67
2018-06-08T21:26:03.320Z,9.50
2018-06-08T21:28:32.607Z,9.70
2018-06-08T21:31:01.955Z,10.83
2018-06-08T21:33:31.298Z,10.57
2018-06-08T21:36:01.207Z,13.80
2018-06-08T21:38:30.493Z,9.83
2018-06-08T21:40:59.784Z,10.27
2018-06-08T21:43:29.089Z,10.97
2018-06-08T21:45:58.814Z,9.20
2018-06-08T21:48:29.564Z,9.30
2018-06-08T21:50:58.846Z,8.83
2018-06-08T21:53:28.203Z,9.53
2018-06-08T21:55:57.466Z,8.67
2018-06-08T21:58:26.711Z,8.80
2018-06-08T22:00:55.972Z,9.20
2018-06-08T22:03:25.262Z,9.60
2018-06-08T22:05:54.217Z,8.37
2018-06-08T22:08:23.364Z,9.70
2018-06-08T22:10:52.655Z,9.27
2018-06-08T22:13:22.009Z,11.23
2018-06-08T22:15:52.244Z,10.37
2018-06-08T22:18:21.510Z,8.60
2018-06-08T22:20:50.773Z,8.40
2018-06-08T22:23:20.048Z,8.70
2018-06-08T22:25:50.387Z,9.03
2018-06-08T22:28:22.654Z,9.13
2018-06-08T22:30:52.148Z,8.83
2018-06-08T22:33:21.394Z,8.30
2018-06-08T22:35:53.043Z,9.33
2018-06-08T22:38:24.110Z,9.00
2018-06-08T22:40:53.391Z,9.10
2018-06-08T22:43:24.675Z,8.37
2018-06-08T22:45:54.023Z,10.07
2018-06-08T22:48:23.326Z,8.80
2018-06-08T22:50:53.022Z,9.00
2018-06-08T22:53:23.739Z,8.70
2018-06-08T22:55:53.031Z,8.97
2018-06-08T22:58:22.290Z,9.03
2018-06-08T23:00:51.579Z,10.60
2018-06-08T23:03:20.817Z,14.03
2018-06-08T23:05:50.075Z,8.43
2018-06-08T23:08:19.335Z,9.07
2018-06-08T23:10:48.612Z,8.90
2018-06-08T23:13:17.956Z,8.97
2018-06-08T23:15:47.202Z,9.87
2018-06-08T23:18:16.499Z,8.90
2018-06-08T23:20:45.753Z,9.43
2018-06-08T23:23:15.109Z,9.10
2018-06-08T23:25:44.433Z,8.83
2018-06-08T23:28:13.717Z,8.70
2018-06-08T23:30:42.997Z,8.60
2018-06-08T23:33:12.302Z,8.97
2018-06-08T23:35:41.563Z,8.87
2018-06-08T23:38:10.832Z,8.70
2018-06-08T23:40:39.756Z,9.77
2018-06-08T23:43:08.921Z,10.37
2018-06-08T23:45:38.239Z,8.73
2018-06-08T23:48:07.480Z,8.47
2018-06-08T23:50:36.729Z,8.30
2018-06-08T23:53:05.956Z,8.80
2018-06-08T23:55:35.283Z,8.30
2018-06-08T23:58:04.594Z,9.77
